createdAt,value
2022-12-22T00:04:47.648Z,3.28
2022-12-22T00:09:49.220Z,3.50
2022-12-22T00:14:50.817Z,2.85
2022-12-22T00:19:52.584Z,2.78
2022-12-22T00:24:54.526Z,2.47
2022-12-22T00:30:00.508Z,2.50
2022-12-22T00:35:02.371Z,2.60
2022-12-22T00:40:17.266Z,2.20
2022-12-22T00:45:19.533Z,2.40
2022-12-22T00:50:27.801Z,2.17
2022-12-22T00:55:32.268Z,2.47
2022-12-22T01:00:33.777Z,2.80
2022-12-22T01:05:35.326Z,2.92
2022-12-22T01:10:37.102Z,3.25
2022-12-22T01:15:38.747Z,3.10
2022-12-22T01:20:40.519Z,2.63
2022-12-22T01:25:42.071Z,2.28
2022-12-22T01:30:44.063Z,2.22
2022-12-22T01:35:45.660Z,1.90
2022-12-22T01:40:47.559Z,2.00
2022-12-22T01:45:49.260Z,1.90
2022-12-22T01:50:51.061Z,1.88
2022-12-22T01:55:53.505Z,1.50
2022-12-22T02:00:55.080Z,1.38
2022-12-22T02:06:15.648Z,1.52
2022-12-22T02:11:50.273Z,1.63
2022-12-22T02:17:03.859Z,1.23
2022-12-22T02:22:28.045Z,1.50
2022-12-22T02:27:33.113Z,1.33
2022-12-22T02:32:37.723Z,1.67
2022-12-22T02:38:03.639Z,1.90
2022-12-22T02:43:28.033Z,1.80
2022-12-22T02:48:41.040Z,1.30
2022-12-22T02:53:43.146Z,1.30
2022-12-22T02:58:44.788Z,1.40
2022-12-22T03:03:47.145Z,1.00
2022-12-22T03:08:48.686Z,1.13
2022-12-22T03:13:50.387Z,1.00
2022-12-22T03:18:51.958Z,1.30
2022-12-22T03:23:53.540Z,1.42
2022-12-22T03:28:55.453Z,1.50
2022-12-22T03:33:57.021Z,1.48
2022-12-22T03:38:58.542Z,1.45
2022-12-22T03:44:00.505Z,0.82
2022-12-22T03:49:04.555Z,0.90
2022-12-22T03:54:06.563Z,0.98
2022-12-22T03:59:08.782Z,1.42
2022-12-22T04:04:12.243Z,1.52
2022-12-22T04:09:13.956Z,1.63
2022-12-22T04:14:16.073Z,0.95
2022-12-22T04:19:17.759Z,1.15
2022-12-22T04:24:19.300Z,0.80
2022-12-22T04:29:20.826Z,0.63
2022-12-22T04:34:22.447Z,0.50
2022-12-22T04:39:23.973Z,0.45
2022-12-22T04:44:25.638Z,0.80
2022-12-22T04:49:27.174Z,0.88
2022-12-22T04:54:28.796Z,0.90
2022-12-22T04:59:30.386Z,1.08
2022-12-22T05:04:31.980Z,1.02
2022-12-22T05:09:34.344Z,1.00
2022-12-22T05:14:36.017Z,1.30
2022-12-22T05:19:37.583Z,1.27
2022-12-22T05:24:39.154Z,2.00
2022-12-22T05:29:40.739Z,1.98
2022-12-22T05:34:42.250Z,1.60
2022-12-22T05:39:43.831Z,1.60
2022-12-22T05:44:45.486Z,1.85
2022-12-22T05:49:46.962Z,1.60
2022-12-22T05:54:48.569Z,1.60
2022-12-22T05:59:50.146Z,1.80
2022-12-22T06:04:51.803Z,2.10
2022-12-22T06:09:53.446Z,1.92
2022-12-22T06:14:55.195Z,1.50
2022-12-22T06:19:56.720Z,1.83
2022-12-22T06:24:58.308Z,1.92
2022-12-22T06:29:59.973Z,1.67
2022-12-22T06:35:01.538Z,2.10
2022-12-22T06:40:03.666Z,2.47
2022-12-22T06:45:05.524Z,2.20
2022-12-22T06:50:07.723Z,2.00
2022-12-22T06:55:09.325Z,2.20
2022-12-22T07:00:11.221Z,2.10
2022-12-22T07:05:13.264Z,2.90
2022-12-22T07:10:15.417Z,2.42
2022-12-22T07:15:17.188Z,4.82
2022-12-22T07:20:18.757Z,7.57
2022-12-22T07:25:20.278Z,5.18
2022-12-22T07:30:21.870Z,5.32
2022-12-22T07:35:23.493Z,6.07
2022-12-22T07:40:25.100Z,6.47
2022-12-22T07:45:27.445Z,4.88
2022-12-22T07:50:29.037Z,6.13
2022-12-22T07:55:35.815Z,5.63
2022-12-22T08:05:39.057Z,7.05
2022-12-22T08:10:40.703Z,8.23
2022-12-22T08:15:42.386Z,8.05
2022-12-22T08:20:49.898Z,6.53
2022-12-22T08:25:58.046Z,7.60
2022-12-22T08:31:01.958Z,7.95
2022-12-22T08:36:08.266Z,8.88
2022-12-22T08:41:12.817Z,8.95
2022-12-22T08:46:14.365Z,8.65
2022-12-22T08:51:15.924Z,9.00
2022-12-22T08:56:17.520Z,10.68
2022-12-22T09:01:21.375Z,11.63
2022-12-22T09:06:27.634Z,11.57
2022-12-22T09:11:30.257Z,10.98
2022-12-22T09:16:33.791Z,11.27
2022-12-22T09:21:40.533Z,11.60
2022-12-22T09:26:42.825Z,10.35
2022-12-22T09:31:44.605Z,11.30
2022-12-22T09:36:46.699Z,12.60
2022-12-22T09:41:51.557Z,16.00
2022-12-22T09:46:55.573Z,22.00
2022-12-22T09:52:02.686Z,19.58
2022-12-22T09:57:11.896Z,16.23
2022-12-22T10:02:35.766Z,16.15
2022-12-22T10:07:39.441Z,15.98
2022-12-22T10:12:41.115Z,14.98
2022-12-22T10:17:43.003Z,14.02
2022-12-22T10:22:47.534Z,16.35
2022-12-22T10:27:51.567Z,14.85
2022-12-22T10:33:14.976Z,12.30
2022-12-22T10:38:25.237Z,13.02
2022-12-22T10:43:37.940Z,11.70
2022-12-22T10:48:40.341Z,11.57
2022-12-22T10:53:44.536Z,11.45
2022-12-22T10:58:56.615Z,11.55
2022-12-22T11:04:16.087Z,11.77
2022-12-22T11:09:33.035Z,10.27
2022-12-22T11:14:50.370Z,14.43
2022-12-22T11:25:12.062Z,11.68
2022-12-22T11:30:21.129Z,10.88
2022-12-22T11:35:25.677Z,12.77
2022-12-22T11:40:49.989Z,13.98
2022-12-22T11:46:16.287Z,11.98
2022-12-22T11:51:29.291Z,13.00
2022-12-22T11:56:39.355Z,10.88
2022-12-22T12:02:13.015Z,9.32
2022-12-22T12:07:32.093Z,9.98
2022-12-22T12:12:39.657Z,8.77
2022-12-22T12:18:08.599Z,8.50
2022-12-22T12:23:10.333Z,6.72
2022-12-22T12:28:20.769Z,7.78
2022-12-22T12:33:31.329Z,7.63
2022-12-22T12:44:02.476Z,7.07
2022-12-22T12:49:04.057Z,4.68
2022-12-22T12:54:37.193Z,4.20
2022-12-22T12:59:41.947Z,4.63
2022-12-22T13:05:02.009Z,4.95
2022-12-22T13:10:08.656Z,4.13
2022-12-22T13:15:30.266Z,4.95
2022-12-22T13:20:36.688Z,5.88
2022-12-22T13:25:58.663Z,6.60
2022-12-22T13:31:05.031Z,5.80
2022-12-22T13:36:15.984Z,5.53
2022-12-22T13:41:26.903Z,6.97
2022-12-22T13:46:30.574Z,6.13
2022-12-22T13:51:36.339Z,6.75
2022-12-22T13:56:44.658Z,6.73
2022-12-22T14:01:50.567Z,6.70
2022-12-22T14:06:52.426Z,7.90
2022-12-22T14:11:59.872Z,6.75
2022-12-22T14:17:01.698Z,6.53
2022-12-22T14:22:13.363Z,6.20
2022-12-22T14:27:29.183Z,6.53
2022-12-22T14:32:38.061Z,7.03
2022-12-22T14:37:39.632Z,5.80
2022-12-22T14:42:44.051Z,6.53
2022-12-22T14:47:45.831Z,7.50
2022-12-22T14:52:50.810Z,5.85
2022-12-22T14:58:17.208Z,7.93
2022-12-22T15:03:25.341Z,7.23
2022-12-22T15:08:42.132Z,7.55
2022-12-22T15:13:47.032Z,8.38
2022-12-22T15:18:50.143Z,7.85
2022-12-22T15:23:51.710Z,8.23
2022-12-22T15:28:53.297Z,10.13
2022-12-22T15:33:59.170Z,9.27
2022-12-22T15:39:00.798Z,8.90
2022-12-22T15:44:02.296Z,9.20
2022-12-22T15:49:04.432Z,9.15
2022-12-22T15:54:09.645Z,9.70
2022-12-22T15:59:21.234Z,9.55
2022-12-22T16:04:23.124Z,9.68
2022-12-22T16:09:28.857Z,9.60
2022-12-22T16:14:36.833Z,7.38
2022-12-22T16:19:40.885Z,8.80
2022-12-22T16:24:45.456Z,7.72
2022-12-22T16:29:51.442Z,8.45
2022-12-22T16:34:59.687Z,8.37
2022-12-22T16:40:01.933Z,7.85
2022-12-22T16:45:06.364Z,7.90
2022-12-22T16:50:20.364Z,7.63
2022-12-22T16:55:22.369Z,6.25
2022-12-22T17:00:26.556Z,5.68
2022-12-22T17:05:38.766Z,5.32
2022-12-22T17:10:47.249Z,5.65
2022-12-22T17:15:48.895Z,4.60
2022-12-22T17:20:55.303Z,3.40
2022-12-22T17:25:58.729Z,1.25
2022-12-22T17:31:00.482Z,1.42
2022-12-22T17:36:02.227Z,1.10
2022-12-22T17:41:03.787Z,0.73
2022-12-22T17:46:05.791Z,1.25
2022-12-22T17:51:17.461Z,1.08
2022-12-22T17:56:24.205Z,1.15
2022-12-22T18:01:31.359Z,1.02
2022-12-22T18:06:35.562Z,1.20
2022-12-22T18:11:43.754Z,1.60
2022-12-22T18:16:47.507Z,1.38
2022-12-22T18:21:49.238Z,1.13
2022-12-22T18:26:50.822Z,1.60
2022-12-22T18:31:52.712Z,1.92
2022-12-22T18:36:57.476Z,1.88
2022-12-22T18:41:59.399Z,1.40
2022-12-22T18:47:00.985Z,2.85
2022-12-22T18:52:02.699Z,2.00
2022-12-22T18:57:16.719Z,3.10
2022-12-22T19:02:27.917Z,3.00
2022-12-22T19:07:29.555Z,2.13
2022-12-22T19:12:31.369Z,2.08
2022-12-22T19:17:33.035Z,2.25
2022-12-22T19:22:35.047Z,2.35
2022-12-22T19:27:36.632Z,2.38
2022-12-22T19:32:44.916Z,2.30
2022-12-22T19:37:48.480Z,3.10
2022-12-22T19:42:53.359Z,3.42
2022-12-22T19:47:56.785Z,4.18
2022-12-22T19:52:58.601Z,4.97
2022-12-22T19:58:01.386Z,4.40
2022-12-22T20:03:03.218Z,3.85
2022-12-22T20:08:05.150Z,5.15
2022-12-22T20:13:20.765Z,4.10
2022-12-22T20:18:24.788Z,3.92
2022-12-22T20:23:29.327Z,4.03
2022-12-22T20:28:34.090Z,4.97
2022-12-22T20:33:35.690Z,3.60
2022-12-22T20:38:39.926Z,4.00
2022-12-22T20:43:41.887Z,4.13
2022-12-22T20:48:50.244Z,4.68
2022-12-22T20:53:52.873Z,4.38
2022-12-22T20:58:58.423Z,5.22
2022-12-22T21:04:00.030Z,4.85
2022-12-22T21:09:01.877Z,5.03
2022-12-22T21:14:03.636Z,6.70
2022-12-22T21:19:05.607Z,5.65
2022-12-22T21:24:07.466Z,5.40
2022-12-22T21:29:24.377Z,5.43
2022-12-22T21:39:34.827Z,5.13
2022-12-22T21:44:36.382Z,6.18
2022-12-22T21:49:37.927Z,6.35
2022-12-22T21:54:42.250Z,6.13
2022-12-22T21:59:43.857Z,7.30
2022-12-22T22:04:53.771Z,6.68
2022-12-22T22:09:56.526Z,8.00
2022-12-22T22:14:58.622Z,8.20
2022-12-22T22:20:00.229Z,6.85
2022-12-22T22:25:02.078Z,7.53
2022-12-22T22:30:05.618Z,8.40
2022-12-22T22:35:07.460Z,7.38
2022-12-22T22:40:12.697Z,7.20
2022-12-22T22:45:16.694Z,7.75
2022-12-22T22:50:19.388Z,6.95
2022-12-22T22:55:21.062Z,8.00
2022-12-22T23:00:22.800Z,6.85
2022-12-22T23:05:24.409Z,6.47
2022-12-22T23:10:26.153Z,7.50
2022-12-22T23:15:27.834Z,7.93
2022-12-22T23:20:29.393Z,7.68
2022-12-22T23:25:31.088Z,7.68
2022-12-22T23:30:32.735Z,7.20
2022-12-22T23:35:39.353Z,7.35
2022-12-22T23:40:52.278Z,7.07
2022-12-22T23:45:55.393Z,8.32
2022-12-22T23:50:56.957Z,7.95
2022-12-22T23:55:58.795Z,7.57
